createdAt,value
2024-01-19T00:02:18.830Z,73.74
2024-01-19T00:04:46.179Z,73.80
2024-01-19T00:07:14.070Z,73.77
2024-01-19T00:09:41.105Z,73.72
2024-01-19T00:12:08.451Z,73.70
2024-01-19T00:14:35.876Z,73.69
2024-01-19T00:17:03.037Z,73.63
2024-01-19T00:19:30.040Z,73.54
2024-01-19T00:21:57.263Z,73.51
2024-01-19T00:24:24.477Z,73.50
2024-01-19T00:26:52.533Z,73.55
2024-01-19T00:29:19.761Z,73.62
2024-01-19T00:31:48.449Z,73.68
2024-01-19T00:34:17.227Z,73.61
2024-01-19T00:36:44.824Z,73.52
2024-01-19T00:39:12.078Z,73.45
2024-01-19T00:41:39.550Z,73.46
2024-01-19T00:44:06.812Z,73.26
2024-01-19T00:46:34.046Z,73.19
2024-01-19T00:49:01.400Z,73.19
2024-01-19T00:51:28.838Z,73.20
2024-01-19T00:53:56.165Z,73.28
2024-01-19T00:56:23.673Z,73.48
2024-01-19T00:58:50.985Z,72.42
2024-01-19T01:01:18.274Z,71.68
2024-01-19T01:03:46.070Z,71.71
2024-01-19T01:06:13.364Z,71.89
2024-01-19T01:08:40.910Z,71.95
2024-01-19T01:11:10.213Z,71.92
2024-01-19T01:13:37.683Z,72.08
2024-01-19T01:16:05.119Z,72.13
2024-01-19T01:18:32.348Z,72.04
2024-01-19T01:20:59.661Z,72.08
2024-01-19T01:23:27.164Z,72.28
2024-01-19T01:25:54.598Z,72.30
2024-01-19T01:28:21.830Z,72.35
2024-01-19T01:30:49.095Z,72.53
2024-01-19T01:33:17.000Z,72.61
2024-01-19T01:35:44.681Z,72.59
2024-01-19T01:38:13.037Z,72.77
2024-01-19T01:40:40.289Z,72.72
2024-01-19T01:43:07.937Z,72.92
2024-01-19T01:45:35.495Z,72.83
2024-01-19T01:48:03.523Z,72.59
2024-01-19T01:50:31.434Z,72.42
2024-01-19T01:52:59.183Z,72.36
2024-01-19T01:55:26.893Z,72.43
2024-01-19T01:57:54.457Z,72.53
2024-01-19T02:04:06.094Z,72.59
2024-01-19T02:06:54.663Z,72.65
2024-01-19T02:09:55.750Z,72.64
2024-01-19T02:12:53.707Z,72.64
2024-01-19T02:16:01.716Z,72.82
2024-01-19T02:18:49.883Z,72.80
2024-01-19T02:21:50.177Z,72.87
2024-01-19T02:24:20.317Z,72.91
2024-01-19T02:27:47.183Z,72.96
2024-01-19T02:31:14.077Z,72.81
2024-01-19T02:34:41.413Z,72.66
2024-01-19T02:37:40.842Z,72.50
2024-01-19T02:40:57.421Z,72.44
2024-01-19T02:44:22.376Z,72.48
2024-01-19T02:47:49.568Z,72.28
2024-01-19T02:50:45.698Z,72.39
2024-01-19T02:54:12.842Z,71.31
2024-01-19T02:57:44.134Z,71.23
2024-01-19T03:01:11.179Z,71.46
2024-01-19T03:04:58.044Z,71.44
2024-01-19T03:08:30.461Z,71.55
2024-01-19T03:12:01.832Z,71.35
2024-01-19T03:15:48.613Z,71.70
2024-01-19T03:19:35.493Z,71.52
2024-01-19T03:23:06.078Z,71.71
2024-01-19T03:26:33.491Z,71.41
2024-01-19T03:30:00.609Z,71.50
2024-01-19T03:33:28.015Z,71.50
2024-01-19T03:37:14.572Z,71.45
2024-01-19T03:40:41.499Z,71.27
2024-01-19T03:43:51.317Z,71.45
2024-01-19T03:47:38.319Z,71.47
2024-01-19T03:51:09.041Z,71.48
2024-01-19T03:54:37.159Z,71.38
2024-01-19T03:58:27.295Z,71.44
2024-01-19T04:02:00.945Z,71.23
2024-01-19T04:05:48.403Z,71.33
2024-01-19T04:09:35.184Z,71.37
2024-01-19T04:13:02.683Z,71.34
2024-01-19T04:16:49.441Z,71.64
2024-01-19T04:20:36.646Z,71.57
2024-01-19T04:24:23.359Z,71.76
2024-01-19T04:27:51.126Z,71.86
2024-01-19T04:30:59.564Z,71.77
2024-01-19T04:34:46.470Z,71.88
2024-01-19T04:38:26.884Z,71.64
2024-01-19T04:42:13.674Z,71.39
2024-01-19T04:46:00.786Z,71.45
2024-01-19T04:49:29.143Z,71.33
2024-01-19T04:52:59.237Z,71.28
2024-01-19T04:56:37.975Z,71.38
2024-01-19T05:00:04.855Z,71.34
2024-01-19T05:03:51.814Z,71.36
2024-01-19T05:07:18.676Z,71.39
2024-01-19T05:10:46.152Z,71.36
2024-01-19T05:14:13.446Z,71.25
2024-01-19T05:18:00.324Z,71.05
2024-01-19T05:21:35.934Z,71.03
2024-01-19T05:25:03.397Z,70.90
2024-01-19T05:28:53.164Z,71.01
2024-01-19T05:32:22.619Z,70.91
2024-01-19T05:35:49.865Z,70.88
2024-01-19T05:39:16.770Z,71.05
2024-01-19T05:43:05.908Z,70.91
2024-01-19T05:46:51.690Z,70.58
2024-01-19T05:50:38.612Z,70.77
2024-01-19T05:54:25.303Z,70.54
2024-01-19T05:58:12.652Z,70.23
2024-01-19T06:01:59.518Z,69.93
2024-01-19T06:05:49.541Z,70.04
2024-01-19T06:09:36.518Z,70.02
2024-01-19T06:17:08.290Z,69.81
2024-01-19T06:20:55.369Z,69.84
2024-01-19T06:24:42.693Z,70.04
2024-01-19T06:28:30.271Z,70.06
2024-01-19T06:32:17.368Z,69.46
2024-01-19T06:36:05.241Z,69.70
2024-01-19T06:39:52.701Z,69.81
2024-01-19T06:43:39.855Z,69.35
2024-01-19T06:47:28.880Z,68.94
2024-01-19T06:51:16.196Z,68.57
2024-01-19T06:55:03.029Z,68.57
2024-01-19T06:58:49.971Z,68.44
2024-01-19T07:02:37.129Z,68.17
2024-01-19T07:06:29.892Z,68.02
2024-01-19T07:10:16.861Z,67.94
2024-01-19T07:14:03.601Z,68.21
2024-01-19T07:17:51.935Z,68.10
2024-01-19T07:21:26.247Z,68.07
2024-01-19T07:25:13.289Z,68.32
2024-01-19T07:29:03.465Z,68.48
2024-01-19T07:33:01.318Z,68.34
2024-01-19T07:36:38.539Z,69.11
2024-01-19T07:40:06.156Z,69.57
2024-01-19T07:43:54.507Z,69.74
2024-01-19T07:51:08.458Z,69.65
2024-01-19T07:54:35.933Z,69.97
2024-01-19T07:58:22.858Z,69.90
2024-01-19T08:02:09.723Z,70.10
2024-01-19T08:05:56.987Z,69.82
2024-01-19T08:09:43.756Z,69.70
2024-01-19T08:13:14.132Z,69.92
2024-01-19T08:17:01.904Z,69.80
2024-01-19T08:20:48.981Z,69.48
2024-01-19T08:24:35.801Z,69.66
2024-01-19T08:28:23.187Z,69.56
2024-01-19T08:32:14.703Z,69.47
2024-01-19T08:36:02.260Z,69.17
2024-01-19T08:39:49.285Z,68.81
2024-01-19T08:43:36.495Z,69.46
2024-01-19T08:46:26.648Z,69.66
2024-01-19T08:49:57.174Z,69.61
2024-01-19T08:53:26.108Z,69.65
2024-01-19T08:56:38.748Z,73.30
2024-01-19T08:59:08.222Z,69.57
2024-01-19T09:01:35.805Z,63.58
2024-01-19T09:04:03.338Z,59.20
2024-01-19T09:06:31.146Z,55.75
2024-01-19T09:09:02.784Z,57.53
2024-01-19T09:11:30.859Z,60.45
2024-01-19T09:13:58.300Z,63.65
2024-01-19T09:16:25.559Z,65.13
2024-01-19T09:18:53.144Z,61.88
2024-01-19T09:21:20.887Z,56.53
2024-01-19T09:23:48.118Z,56.18
2024-01-19T09:26:22.536Z,56.32
2024-01-19T09:28:51.862Z,58.73
2024-01-19T09:31:19.333Z,60.26
2024-01-19T09:33:47.167Z,65.12
2024-01-19T09:36:15.192Z,66.09
2024-01-19T09:38:44.652Z,60.69
2024-01-19T09:41:33.989Z,55.21
2024-01-19T09:44:03.654Z,55.74
2024-01-19T09:46:31.104Z,57.76
2024-01-19T09:49:21.625Z,60.98
2024-01-19T09:52:12.606Z,66.71
2024-01-19T09:54:41.759Z,63.54
2024-01-19T09:57:08.899Z,57.02
2024-01-19T09:59:36.130Z,55.25
2024-01-19T10:02:03.942Z,56.57
2024-01-19T10:04:31.540Z,59.92
2024-01-19T10:06:58.913Z,64.19
2024-01-19T10:09:26.575Z,63.48
2024-01-19T10:11:55.769Z,59.85
2024-01-19T10:14:33.328Z,56.56
2024-01-19T10:17:02.689Z,54.72
2024-01-19T10:19:32.816Z,57.65
2024-01-19T10:22:29.499Z,59.65
2024-01-19T10:25:09.895Z,61.08
2024-01-19T10:27:54.696Z,65.98
2024-01-19T10:30:31.649Z,64.47
2024-01-19T10:33:08.885Z,60.37
2024-01-19T10:35:41.455Z,57.00
2024-01-19T10:38:11.163Z,56.03
2024-01-19T10:40:38.335Z,60.11
2024-01-19T10:43:08.594Z,62.34
2024-01-19T10:45:39.981Z,63.32
2024-01-19T10:48:08.811Z,62.28
2024-01-19T10:50:36.807Z,57.09
2024-01-19T10:53:14.080Z,54.30
2024-01-19T10:55:49.993Z,56.60
2024-01-19T10:58:21.625Z,59.69
2024-01-19T11:00:48.844Z,60.61
2024-01-19T11:03:18.825Z,63.47
2024-01-19T11:05:49.031Z,65.81
2024-01-19T11:08:16.453Z,63.97
2024-01-19T11:10:48.887Z,61.77
2024-01-19T11:13:19.733Z,57.92
2024-01-19T11:15:50.821Z,57.32
2024-01-19T11:18:18.330Z,58.52
2024-01-19T11:20:46.375Z,62.02
2024-01-19T11:23:14.681Z,64.55
2024-01-19T11:26:01.360Z,64.62
2024-01-19T11:28:51.793Z,62.41
2024-01-19T11:31:34.439Z,61.32
2024-01-19T11:34:02.683Z,57.88
2024-01-19T11:36:45.295Z,58.23
2024-01-19T11:39:15.531Z,58.41
2024-01-19T11:41:46.238Z,60.57
2024-01-19T11:44:44.852Z,64.17
2024-01-19T11:47:38.214Z,64.58
2024-01-19T11:50:07.665Z,61.59
2024-01-19T11:52:43.311Z,60.36
2024-01-19T11:55:34.098Z,56.58
2024-01-19T11:58:26.618Z,55.56
2024-01-19T12:00:59.744Z,58.83
2024-01-19T12:03:28.938Z,59.49
2024-01-19T12:06:02.203Z,62.49
2024-01-19T12:08:32.679Z,63.95
2024-01-19T12:11:12.900Z,62.60
2024-01-19T12:13:49.168Z,60.61
2024-01-19T12:16:27.297Z,57.08
2024-01-19T12:18:59.040Z,55.55
2024-01-19T12:21:30.061Z,58.57
2024-01-19T12:23:59.079Z,60.10
2024-01-19T12:26:29.169Z,62.99
2024-01-19T12:28:59.076Z,63.94
2024-01-19T12:31:38.666Z,63.12
2024-01-19T12:34:17.541Z,61.84
2024-01-19T12:36:47.644Z,59.73
2024-01-19T12:39:19.269Z,57.75
2024-01-19T12:42:11.732Z,58.91
2024-01-19T12:44:39.100Z,59.64
2024-01-19T12:47:06.651Z,61.20
2024-01-19T12:49:40.175Z,64.24
2024-01-19T12:52:13.420Z,64.81
2024-01-19T12:54:46.579Z,63.98
2024-01-19T12:57:20.643Z,62.88
2024-01-19T13:00:13.319Z,62.51
2024-01-19T13:02:43.297Z,62.53
2024-01-19T13:05:21.602Z,62.28
2024-01-19T13:07:53.497Z,61.73
2024-01-19T13:10:23.573Z,60.57
2024-01-19T13:13:04.755Z,59.53
2024-01-19T13:15:35.728Z,56.96
2024-01-19T13:18:19.762Z,59.07
2024-01-19T13:20:47.261Z,60.12
2024-01-19T13:23:15.082Z,62.90
2024-01-19T13:25:56.759Z,64.19
2024-01-19T13:28:24.066Z,62.97
2024-01-19T13:30:51.713Z,62.71
2024-01-19T13:34:19.650Z,61.39
2024-01-19T13:38:06.974Z,60.09
2024-01-19T13:41:55.493Z,58.19
2024-01-19T13:45:43.267Z,59.64
2024-01-19T13:49:31.093Z,63.10
2024-01-19T13:53:18.693Z,63.88
2024-01-19T13:57:06.389Z,63.70
2024-01-19T14:00:56.812Z,61.58
2024-01-19T14:04:44.569Z,60.38
2024-01-19T14:08:33.853Z,60.53
2024-01-19T14:12:22.720Z,59.56
2024-01-19T14:16:13.504Z,56.87
2024-01-19T14:20:01.293Z,57.47
2024-01-19T14:23:51.251Z,58.58
2024-01-19T14:27:41.702Z,59.55
2024-01-19T14:31:29.532Z,64.16
2024-01-19T14:35:17.896Z,67.58
2024-01-19T14:39:05.905Z,65.52
2024-01-19T14:42:59.997Z,64.39
2024-01-19T14:46:45.371Z,64.46
2024-01-19T14:50:39.052Z,64.41
2024-01-19T14:54:26.900Z,64.15
2024-01-19T14:58:14.700Z,65.11
2024-01-19T15:02:02.863Z,64.80
2024-01-19T15:05:50.798Z,65.27
2024-01-19T15:09:38.590Z,65.58
2024-01-19T15:13:26.687Z,65.74
2024-01-19T15:17:17.428Z,65.61
2024-01-19T15:21:06.870Z,65.41
2024-01-19T15:24:54.653Z,65.77
2024-01-19T15:28:43.646Z,65.63
2024-01-19T15:32:35.784Z,65.14
2024-01-19T15:36:22.742Z,65.21
2024-01-19T15:40:11.335Z,64.69
2024-01-19T15:43:07.804Z,64.90
2024-01-19T15:46:55.103Z,65.10
2024-01-19T15:50:20.526Z,65.41
2024-01-19T15:53:36.696Z,65.89
2024-01-19T15:56:39.281Z,66.69
2024-01-19T16:00:26.813Z,66.91
2024-01-19T16:04:17.603Z,66.46
2024-01-19T16:08:05.365Z,66.74
2024-01-19T16:11:53.309Z,66.98
2024-01-19T16:15:41.279Z,67.16
2024-01-19T16:19:29.199Z,67.02
2024-01-19T16:23:17.083Z,67.09
2024-01-19T16:27:05.066Z,67.51
2024-01-19T16:30:53.450Z,67.24
2024-01-19T16:34:41.576Z,67.93
2024-01-19T16:38:32.166Z,67.51
2024-01-19T16:42:23.660Z,67.74
2024-01-19T16:46:12.468Z,67.84
2024-01-19T16:50:03.176Z,68.08
2024-01-19T16:53:50.983Z,68.70
2024-01-19T16:57:41.590Z,68.33
2024-01-19T17:01:30.795Z,68.58
2024-01-19T17:05:18.968Z,68.97
2024-01-19T17:09:07.780Z,68.82
2024-01-19T17:12:57.015Z,68.87
2024-01-19T17:16:25.757Z,68.98
2024-01-19T17:20:13.228Z,69.06
2024-01-19T17:24:09.375Z,69.11
2024-01-19T17:27:57.253Z,69.03
2024-01-19T17:31:46.468Z,68.83
2024-01-19T17:35:34.837Z,68.77
2024-01-19T17:39:30.452Z,68.73
2024-01-19T17:43:16.648Z,68.74
2024-01-19T17:47:10.503Z,68.87
2024-01-19T17:50:58.634Z,68.99
2024-01-19T17:54:46.753Z,68.77
2024-01-19T17:58:35.212Z,68.61
2024-01-19T18:02:24.369Z,68.65
2024-01-19T18:06:12.015Z,68.68
2024-01-19T18:10:05.299Z,68.76
2024-01-19T18:13:54.551Z,68.91
2024-01-19T18:17:44.698Z,68.85
2024-01-19T18:21:47.129Z,68.95
2024-01-19T18:25:39.975Z,68.85
2024-01-19T18:29:27.618Z,68.84
2024-01-19T18:33:17.772Z,68.96
2024-01-19T18:37:06.919Z,68.98
2024-01-19T18:44:41.615Z,69.14
2024-01-19T18:48:29.355Z,69.22
2024-01-19T18:52:17.615Z,69.09
2024-01-19T18:56:05.515Z,69.08
2024-01-19T18:59:53.892Z,69.09
2024-01-19T19:03:44.052Z,68.92
2024-01-19T19:06:19.141Z,68.84
2024-01-19T19:08:51.398Z,68.99
2024-01-19T19:11:19.901Z,68.84
2024-01-19T19:13:49.465Z,68.83
2024-01-19T19:16:26.356Z,68.70
2024-01-19T19:19:02.907Z,68.65
2024-01-19T19:21:30.176Z,68.66
2024-01-19T19:23:58.153Z,68.79
2024-01-19T19:26:25.441Z,68.74
2024-01-19T19:28:55.623Z,68.63
2024-01-19T19:31:22.794Z,68.65
2024-01-19T19:33:49.757Z,68.66
2024-01-19T19:36:16.920Z,68.58
2024-01-19T19:38:45.789Z,68.69
2024-01-19T19:41:14.056Z,68.62
2024-01-19T19:43:41.902Z,68.46
2024-01-19T19:46:15.354Z,68.38
2024-01-19T19:48:43.883Z,68.64
2024-01-19T19:51:11.563Z,68.62
2024-01-19T19:53:39.279Z,68.63
2024-01-19T19:56:09.405Z,68.66
2024-01-19T19:58:39.370Z,68.59
2024-01-19T20:01:11.094Z,68.60
2024-01-19T20:03:40.342Z,68.65
2024-01-19T20:06:10.974Z,68.63
2024-01-19T20:08:38.053Z,68.83
2024-01-19T20:11:07.472Z,68.69
2024-01-19T20:13:35.155Z,68.73
2024-01-19T20:16:02.526Z,68.76
2024-01-19T20:18:31.405Z,68.78
2024-01-19T20:20:59.441Z,68.85
2024-01-19T20:23:27.265Z,68.90
2024-01-19T20:25:54.744Z,68.87
2024-01-19T20:28:22.684Z,68.84
2024-01-19T20:30:49.944Z,68.89
2024-01-19T20:33:18.024Z,68.88
2024-01-19T20:35:46.421Z,68.77
2024-01-19T20:38:14.351Z,68.99
2024-01-19T20:40:42.572Z,68.78
2024-01-19T20:43:10.777Z,68.75
2024-01-19T20:45:41.225Z,68.81
2024-01-19T20:48:08.461Z,69.14
2024-01-19T20:50:35.541Z,69.25
2024-01-19T20:53:05.149Z,69.42
2024-01-19T20:55:32.689Z,69.60
2024-01-19T20:58:01.772Z,69.38
2024-01-19T21:00:30.168Z,69.36
2024-01-19T21:02:57.731Z,69.27
2024-01-19T21:05:25.158Z,69.21
2024-01-19T21:07:55.588Z,69.17
2024-01-19T21:10:27.156Z,69.23
2024-01-19T21:12:56.604Z,69.28
2024-01-19T21:15:26.096Z,69.51
2024-01-19T21:17:55.077Z,69.69
2024-01-19T21:20:24.695Z,69.50
2024-01-19T21:22:53.583Z,69.38
2024-01-19T21:25:22.053Z,69.45
2024-01-19T21:27:49.497Z,69.55
2024-01-19T21:30:17.065Z,69.58
2024-01-19T21:32:44.327Z,69.35
2024-01-19T21:35:11.906Z,69.55
2024-01-19T21:37:40.056Z,69.50
2024-01-19T21:40:12.276Z,69.63
2024-01-19T21:42:45.788Z,69.55
2024-01-19T21:45:15.039Z,69.62
2024-01-19T21:47:44.134Z,69.52
2024-01-19T21:50:12.172Z,69.50
2024-01-19T21:52:40.457Z,69.51
2024-01-19T21:55:08.459Z,69.73
2024-01-19T21:57:36.837Z,69.86
2024-01-19T22:00:04.855Z,69.75
2024-01-19T22:02:32.555Z,69.75
2024-01-19T22:05:01.165Z,69.75
2024-01-19T22:07:28.434Z,69.87
2024-01-19T22:09:59.784Z,69.91
2024-01-19T22:12:27.129Z,69.88
2024-01-19T22:14:54.305Z,69.88
2024-01-19T22:17:21.935Z,69.34
2024-01-19T22:19:50.294Z,69.14
2024-01-19T22:22:17.639Z,69.13
2024-01-19T22:24:44.798Z,69.16
2024-01-19T22:27:11.983Z,69.20
2024-01-19T22:29:39.877Z,69.35
2024-01-19T22:32:07.435Z,69.22
2024-01-19T22:34:34.784Z,69.56
2024-01-19T22:37:02.639Z,69.62
2024-01-19T22:39:30.320Z,69.49
2024-01-19T22:41:58.400Z,69.46
2024-01-19T22:44:25.813Z,69.47
2024-01-19T22:46:53.351Z,69.57
2024-01-19T22:49:21.059Z,69.53
2024-01-19T22:51:48.394Z,69.52
2024-01-19T22:54:15.630Z,69.52
2024-01-19T22:56:43.115Z,69.59
2024-01-19T22:59:10.876Z,69.69
2024-01-19T23:01:38.135Z,69.74
2024-01-19T23:04:05.898Z,69.81
2024-01-19T23:06:33.193Z,69.71
2024-01-19T23:09:01.046Z,69.56
2024-01-19T23:11:29.712Z,69.56
2024-01-19T23:13:57.509Z,69.68
2024-01-19T23:16:24.725Z,69.91
2024-01-19T23:18:52.474Z,70.07
2024-01-19T23:21:20.020Z,70.01
2024-01-19T23:23:47.665Z,70.05
2024-01-19T23:26:15.115Z,70.25
2024-01-19T23:28:43.089Z,70.31
2024-01-19T23:31:13.662Z,70.16
2024-01-19T23:33:41.461Z,70.29
2024-01-19T23:36:12.091Z,70.17
2024-01-19T23:38:40.314Z,70.30
2024-01-19T23:41:07.690Z,70.13
2024-01-19T23:43:35.345Z,70.09
2024-01-19T23:46:03.068Z,70.07
2024-01-19T23:48:30.238Z,70.00
2024-01-19T23:50:57.449Z,69.98
2024-01-19T23:53:24.769Z,70.16
2024-01-19T23:55:51.986Z,69.79
2024-01-19T23:58:19.029Z,69.53
